Time;durP1;ratioP1;P1;durP2;ratioP2;P2;SDS_P1;SDS_P2;PMS_P1;PMS_P2;Temp;Humidity;BMP_temperature;BMP_pressure;BME280_temperature;BME280_humidity;BME280_pressure;Samples;Min_cycle;Max_cycle;Signal;HPM_P1;HPM_P2
2022/07/15 00:03:12;;;;;;;4.22;2.10;;;22.50;99.90;;;;;;4937588;23;20095;-94
2022/07/15 00:20:48;;;;;;;5.00;2.05;;;22.50;99.90;;;;;;4899826;29;20097;-95
2022/07/15 00:23:27;;;;;;;5.47;1.90;;;22.40;99.90;;;;;;4876659;28;20074;-93
2022/07/15 00:40:13;;;;;;;4.80;2.10;;;22.10;99.90;;;;;;806838;23;20325;-93
2022/07/15 00:43:26;;;;;;;;;;;;;;;;;;;;;
2022/07/15 00:46:33;;;;;;;4.60;2.10;;;22.00;99.90;;;;;;4846039;29;20094;-93
2022/07/15 00:49:13;;;;;;;4.95;2.05;;;22.00;99.90;;;;;;4832087;29;20037;-94
2022/07/15 00:51:51;;;;;;;6.75;2.88;;;21.90;99.90;;;;;;4830198;29;20052;-93
2022/07/15 00:54:24;;;;;;;3.13;2.08;;;21.90;99.90;;;;;;4827344;29;20511;-92
2022/07/15 00:56:55;;;;;;;6.75;2.40;;;21.90;99.90;;;;;;4828144;29;20054;-92
2022/07/15 00:59:25;;;;;;;4.85;2.20;;;21.90;99.90;;;;;;4827110;29;20033;-93
2022/07/15 01:01:53;;;;;;;2.88;2.30;;;21.90;99.90;;;;;;4827190;29;20064;-93
2022/07/15 01:04:22;;;;;;;3.53;2.20;;;21.80;99.90;;;;;;4827085;29;20401;-94
2022/07/15 01:06:49;;;;;;;5.32;2.28;;;21.70;99.90;;;;;;4826863;29;20133;-93
2022/07/15 01:09:16;;;;;;;5.88;2.13;;;21.70;99.90;;;;;;4827050;29;20041;-92
2022/07/15 01:11:42;;;;;;;2.85;2.30;;;21.60;99.90;;;;;;4826990;29;20038;-91
2022/07/15 01:14:09;;;;;;;5.63;1.95;;;21.60;99.90;;;;;;4826901;29;20026;-92
2022/07/15 01:16:35;;;;;;;5.65;2.20;;;21.60;99.90;;;;;;4826631;29;20050;-92
2022/07/15 01:19:04;;;;;;;6.65;2.47;;;21.70;99.90;;;;;;4826822;29;20078;-91
2022/07/15 01:21:40;;;;;;;6.28;2.78;;;21.70;99.90;;;;;;4840397;29;20040;-94
2022/07/15 01:24:07;;;;;;;6.18;3.10;;;21.80;99.90;;;;;;4920265;29;20024;-94
2022/07/15 01:26:54;;;;;;;6.00;2.65;;;21.80;99.90;;;;;;4922802;29;20059;-94
2022/07/15 01:29:22;;;;;;;7.55;2.78;;;21.80;99.90;;;;;;4920587;29;20027;-94
2022/07/15 01:31:50;;;;;;;3.53;2.45;;;21.80;99.90;;;;;;4920020;29;20072;-94
2022/07/15 01:34:17;;;;;;;10.50;3.03;;;21.90;99.90;;;;;;4920176;29;20031;-93
2022/07/15 01:36:43;;;;;;;5.22;2.60;;;21.80;99.90;;;;;;4904230;29;20036;-94
2022/07/15 01:39:11;;;;;;;5.03;2.70;;;21.80;99.90;;;;;;4904282;29;20498;-93
2022/07/15 01:41:38;;;;;;;4.53;2.78;;;21.80;99.90;;;;;;4904206;29;20048;-93
2022/07/15 01:44:11;;;;;;;7.88;3.10;;;21.70;99.90;;;;;;4920590;29;20028;-93
2022/07/15 01:46:38;;;;;;;5.35;2.97;;;21.70;99.90;;;;;;4904290;29;20059;-94
2022/07/15 01:52:01;;;;;;;2.83;2.53;;;21.80;99.90;;;;;;4920049;29;20027;-94
2022/07/15 01:54:32;;;;;;;6.60;2.95;;;21.70;99.90;;;;;;4904042;29;20032;-93
2022/07/15 01:57:03;;;;;;;6.03;2.58;;;21.70;99.90;;;;;;4904564;29;20051;-95
2022/07/15 01:59:32;;;;;;;4.43;2.53;;;21.70;99.90;;;;;;4904865;29;20032;-94
2022/07/15 02:02:00;;;;;;;8.75;2.72;;;21.70;99.90;;;;;;4919890;29;20064;-92
2022/07/15 02:04:31;;;;;;;7.90;2.90;;;21.70;99.90;;;;;;4904419;29;20036;-93
2022/07/15 02:06:57;;;;;;;5.38;2.88;;;21.60;99.90;;;;;;4919940;29;20038;-94
2022/07/15 02:09:29;;;;;;;5.80;3.13;;;21.50;99.90;;;;;;4904998;29;20512;-94
2022/07/15 02:11:55;;;;;;;3.60;2.90;;;21.50;99.90;;;;;;4904182;29;20059;-93
2022/07/15 02:14:26;;;;;;;6.57;3.60;;;21.40;99.90;;;;;;4919750;29;20032;-92
2022/07/15 02:17:00;;;;;;;4.32;3.22;;;21.40;99.90;;;;;;4904852;29;20067;-93
2022/07/15 02:19:31;;;;;;;6.45;3.78;;;21.30;99.90;;;;;;4908383;29;20470;-93
2022/07/15 02:21:58;;;;;;;4.85;3.35;;;21.30;99.90;;;;;;4923396;29;20118;-93
2022/07/15 02:24:25;;;;;;;5.72;3.38;;;21.20;99.90;;;;;;4923203;29;20028;-93
2022/07/15 02:26:51;;;;;;;9.15;3.65;;;21.20;99.90;;;;;;4907709;29;20126;-94
2022/07/15 02:29:18;;;;;;;6.97;3.33;;;21.10;99.90;;;;;;4907571;29;20035;-94
2022/07/15 02:31:47;;;;;;;6.22;3.60;;;21.20;99.90;;;;;;4923165;29;20054;-93
2022/07/15 02:34:14;;;;;;;6.72;4.25;;;21.20;99.90;;;;;;4907296;29;20035;-94
2022/07/15 02:36:41;;;;;;;4.80;4.20;;;21.30;99.90;;;;;;4923167;29;20043;-93
2022/07/15 02:39:07;;;;;;;9.35;4.10;;;21.40;99.90;;;;;;4923053;29;20028;-95
2022/07/15 02:41:34;;;;;;;7.78;4.35;;;21.40;99.90;;;;;;4919873;29;20058;-94
2022/07/15 02:44:06;;;;;;;4.80;4.30;;;21.50;99.90;;;;;;4905034;29;20509;-94
2022/07/15 02:46:35;;;;;;;12.70;4.70;;;21.50;99.90;;;;;;4922527;29;20039;-93
2022/07/15 02:49:02;;;;;;;12.38;4.60;;;21.60;99.90;;;;;;4919723;29;20529;-95
2022/07/15 02:51:29;;;;;;;13.70;4.07;;;21.70;99.90;;;;;;4903877;29;20032;-93
2022/07/15 02:53:55;;;;;;;7.45;4.53;;;21.70;99.90;;;;;;4903962;29;20028;-94
2022/07/15 02:56:24;;;;;;;8.40;4.60;;;21.70;99.90;;;;;;4903896;29;20490;-94
2022/07/15 02:58:51;;;;;;;8.43;4.47;;;21.70;99.90;;;;;;4919478;29;20111;-93
2022/07/15 03:01:18;;;;;;;7.05;4.22;;;21.70;99.90;;;;;;4919126;29;20044;-95
2022/07/15 03:06:49;;;;;;;5.43;4.22;;;21.60;99.90;;;;;;4979853;23;20149;-94
2022/07/15 03:09:19;;;;;;;6.70;4.38;;;21.60;99.90;;;;;;4963801;28;20477;-94
2022/07/15 03:11:45;;;;;;;7.63;4.55;;;21.60;99.90;;;;;;4967426;29;20032;-95
2022/07/15 03:14:14;;;;;;;7.00;3.88;;;21.60;99.90;;;;;;4963448;29;20066;-95
2022/07/15 03:16:41;;;;;;;6.80;4.10;;;21.60;99.90;;;;;;4963380;29;20031;-95
2022/07/15 03:19:08;;;;;;;12.18;4.50;;;21.60;99.90;;;;;;4945563;29;20031;-94
2022/07/15 03:21:38;;;;;;;5.38;3.80;;;21.60;99.90;;;;;;4947989;29;20065;-94
2022/07/15 03:24:07;;;;;;;8.27;4.13;;;21.60;99.90;;;;;;4964725;29;20484;-94
2022/07/15 03:26:36;;;;;;;5.00;4.28;;;21.60;99.90;;;;;;4964481;29;20051;-94
2022/07/15 03:29:07;;;;;;;12.15;4.20;;;21.50;99.90;;;;;;4963064;28;20119;-95
2022/07/15 03:31:34;;;;;;;7.60;4.03;;;21.50;99.90;;;;;;4962197;29;20038;-95
2022/07/15 03:34:01;;;;;;;7.75;4.18;;;21.50;99.90;;;;;;4961351;29;20047;-94
2022/07/15 03:36:28;;;;;;;8.27;4.90;;;21.50;99.90;;;;;;4960360;29;20043;-94
2022/07/15 03:38:55;;;;;;;7.75;4.25;;;21.50;99.90;;;;;;4944704;29;20062;-94
2022/07/15 03:41:40;;;;;;;7.38;4.20;;;21.50;99.90;;;;;;4965007;29;20043;-94
2022/07/15 03:44:07;;;;;;;6.80;4.13;;;21.50;99.90;;;;;;4959603;29;20445;-93
2022/07/15 03:46:34;;;;;;;8.23;4.70;;;21.50;99.90;;;;;;4941856;29;20540;-94
2022/07/15 03:49:03;;;;;;;6.10;5.05;;;21.40;99.90;;;;;;4956775;29;20059;-94
2022/07/15 03:51:32;;;;;;;6.45;4.47;;;21.50;99.90;;;;;;4941091;29;20035;-95
2022/07/15 03:54:11;;;;;;;7.57;4.43;;;21.50;99.90;;;;;;4956706;29;20028;-93
2022/07/15 03:56:38;;;;;;;6.05;4.72;;;21.50;99.90;;;;;;4956557;29;20042;-94
2022/07/15 03:59:06;;;;;;;11.50;5.05;;;21.50;99.90;;;;;;4940610;29;20039;-93
2022/07/15 04:01:33;;;;;;;8.18;4.70;;;21.50;99.90;;;;;;4940500;29;20031;-92
2022/07/15 04:04:00;;;;;;;8.35;4.82;;;21.50;99.90;;;;;;4956777;29;20596;-93
2022/07/15 04:06:27;;;;;;;11.75;5.15;;;21.50;99.90;;;;;;4937350;29;20080;-93
2022/07/15 04:08:53;;;;;;;13.25;5.13;;;21.50;99.90;;;;;;4953266;29;20031;-94
2022/07/15 04:11:20;;;;;;;9.20;5.38;;;21.40;99.90;;;;;;4923510;29;20048;-93
2022/07/15 04:13:47;;;;;;;9.13;4.97;;;21.40;99.90;;;;;;4937404;29;20031;-93
2022/07/15 04:16:14;;;;;;;14.00;6.15;;;21.40;99.90;;;;;;4921229;29;20098;-92
2022/07/15 04:18:41;;;;;;;11.55;4.90;;;21.40;99.90;;;;;;4937158;29;20028;-95
2022/07/15 04:21:08;;;;;;;10.30;5.53;;;21.40;99.90;;;;;;4921594;29;20393;-94
2022/07/15 04:23:35;;;;;;;10.20;6.05;;;21.40;99.90;;;;;;4936934;29;20042;-95
2022/07/15 04:26:02;;;;;;;11.75;5.72;;;21.50;99.90;;;;;;4921287;29;20511;-94
2022/07/15 04:28:29;;;;;;;11.20;5.82;;;21.50;99.90;;;;;;4937177;29;20034;-94
2022/07/15 04:30:56;;;;;;;19.65;5.47;;;21.50;99.90;;;;;;4937144;29;20071;-93
2022/07/15 04:33:23;;;;;;;12.50;5.28;;;21.60;99.90;;;;;;4937029;29;20028;-94
2022/07/15 04:35:50;;;;;;;12.63;5.82;;;21.60;99.90;;;;;;4920963;29;20043;-94
2022/07/15 04:38:17;;;;;;;11.02;5.10;;;21.80;99.90;;;;;;4936975;29;20027;-93
2022/07/15 04:40:44;;;;;;;9.57;4.78;;;21.90;99.90;;;;;;4936343;29;20039;-93
2022/07/15 04:43:12;;;;;;;10.30;4.90;;;22.30;99.90;;;;;;4936726;29;20032;-94
2022/07/15 04:45:41;;;;;;;7.57;4.25;;;23.20;99.90;;;;;;4921252;29;20067;-93
2022/07/15 04:50:55;;;;;;;9.48;3.72;;;25.60;99.90;;;;;;4952491;29;20038;-93
2022/07/15 04:53:26;;;;;;;8.70;3.72;;;27.30;99.90;;;;;;4921372;29;20063;-94
2022/07/15 04:55:54;;;;;;;7.93;4.03;;;28.00;99.90;;;;;;4936924;29;20040;-94
2022/07/15 04:58:20;;;;;;;10.82;4.10;;;29.20;99.90;;;;;;4920713;29;20035;-94
2022/07/15 05:00:48;;;;;;;8.90;4.05;;;30.40;99.90;;;;;;4936745;29;20027;-96
2022/07/15 05:03:16;;;;;;;9.25;4.35;;;31.30;99.90;;;;;;4920639;29;20031;-93
2022/07/15 05:05:45;;;;;;;7.63;4.28;;;31.50;99.90;;;;;;4930622;29;20047;-92
2022/07/15 05:08:17;;;;;;;12.65;4.80;;;31.80;99.90;;;;;;4938306;29;20088;-94
2022/07/15 05:10:51;;;;;;;5.25;4.70;;;31.80;99.90;;;;;;4938189;29;20040;-93
2022/07/15 05:13:18;;;;;;;7.97;4.05;;;32.40;99.90;;;;;;4953202;29;20032;-94
2022/07/15 05:15:47;;;;;;;7.28;4.18;;;32.60;99.90;;;;;;4936150;29;20028;-94
2022/07/15 05:18:18;;;;;;;12.90;4.03;;;32.90;99.90;;;;;;4952477;29;20124;-93
2022/07/15 05:20:45;;;;;;;6.47;3.25;;;32.30;99.90;;;;;;4952538;29;20087;-93
2022/07/15 05:23:17;;;;;;;5.97;3.30;;;32.30;99.90;;;;;;4951666;29;20553;-93
2022/07/15 05:25:48;;;;;;;5.43;3.60;;;31.40;99.90;;;;;;4951396;29;20039;-94
2022/07/15 05:28:15;;;;;;;6.15;3.58;;;30.70;99.90;;;;;;4953576;29;20032;-94
2022/07/15 05:30:43;;;;;;;5.72;3.88;;;31.00;99.90;;;;;;4938073;29;20040;-94
2022/07/15 05:33:15;;;;;;;5.50;3.30;;;30.90;99.90;;;;;;4953308;29;20144;-95
2022/07/15 05:35:41;;;;;;;5.40;3.70;;;31.20;99.90;;;;;;4953353;29;20063;-94
2022/07/15 05:38:09;;;;;;;11.48;4.47;;;31.20;99.90;;;;;;4936227;29;20027;-94
2022/07/15 05:40:36;;;;;;;3.80;3.50;;;31.10;99.90;;;;;;4936323;29;20040;-91
2022/07/15 05:43:02;;;;;;;6.30;4.30;;;31.20;99.90;;;;;;4955009;29;20038;-92
2022/07/15 05:45:32;;;;;;;8.13;5.00;;;31.60;99.90;;;;;;4937444;29;20024;-92
2022/07/15 05:48:06;;;;;;;6.30;5.15;;;32.00;99.90;;;;;;4950964;29;20034;-92
2022/07/15 05:50:41;;;;;;;11.27;6.03;;;32.70;99.90;;;;;;4950697;29;20083;-92
2022/07/15 05:53:09;;;;;;;8.18;5.95;;;32.90;99.90;;;;;;4936921;29;20036;-94
2022/07/15 05:55:36;;;;;;;8.90;6.30;;;32.60;99.90;;;;;;4939922;29;20027;-92
2022/07/15 05:58:09;;;;;;;8.00;7.05;;;33.10;99.90;;;;;;4955443;29;20118;-95
2022/07/15 06:00:39;;;;;;;8.23;7.30;;;33.20;99.90;;;;;;4939887;29;20446;-95
2022/07/15 06:03:06;;;;;;;8.93;7.43;;;33.50;99.90;;;;;;4955463;29;20028;-94
2022/07/15 06:05:38;;;;;;;8.68;7.88;;;34.00;99.90;;;;;;4943411;29;20102;-91
2022/07/15 06:08:05;;;;;;;10.40;8.27;;;34.00;99.90;;;;;;4958523;29;20509;-94
2022/07/15 06:10:38;;;;;;;9.02;8.23;;;34.10;99.90;;;;;;4943868;29;20035;-94
2022/07/15 06:13:05;;;;;;;8.85;8.10;;;33.80;99.90;;;;;;4958494;29;20036;-93
2022/07/15 06:15:33;;;;;;;15.05;8.20;;;33.80;99.90;;;;;;4942565;29;20501;-93
2022/07/15 06:17:59;;;;;;;9.02;8.13;;;33.60;99.90;;;;;;4958874;29;20050;-94
2022/07/15 06:20:31;;;;;;;9.60;8.48;;;32.70;99.90;;;;;;4958295;29;20046;-91
2022/07/15 06:23:00;;;;;;;12.88;8.90;;;33.20;99.90;;;;;;4942746;29;20122;-91
2022/07/15 06:25:27;;;;;;;10.52;9.63;;;34.00;99.90;;;;;;4958317;29;20023;-94
2022/07/15 06:27:53;;;;;;;10.32;9.40;;;33.60;99.90;;;;;;4942501;29;20027;-93
2022/07/15 06:30:22;;;;;;;10.48;9.75;;;33.80;99.90;;;;;;4957921;29;20015;-93
2022/07/15 06:33:14;;;;;;;10.80;10.20;;;33.70;99.90;;;;;;4944107;29;20043;-94
2022/07/15 06:35:42;;;;;;;11.65;10.85;;;33.30;99.90;;;;;;4948094;29;20031;-94
2022/07/15 06:41:16;;;;;;;11.07;10.30;;;33.40;99.90;;;;;;4944349;29;20057;-94
2022/07/15 06:43:50;;;;;;;10.85;9.93;;;33.20;99.90;;;;;;4931595;29;20031;-96
2022/07/15 06:46:35;;;;;;;11.50;10.40;;;33.20;99.90;;;;;;4925974;29;20127;-95
2022/07/15 06:49:13;;;;;;;10.75;9.93;;;33.40;99.90;;;;;;4903495;29;20123;-94
2022/07/15 06:51:40;;;;;;;10.82;10.02;;;33.30;99.90;;;;;;4904090;29;20044;-95
2022/07/15 06:54:07;;;;;;;10.35;9.85;;;33.50;99.90;;;;;;4903819;29;20024;-94
2022/07/15 06:56:39;;;;;;;11.52;10.68;;;34.00;99.90;;;;;;4903922;29;20059;-94
2022/07/15 06:59:06;;;;;;;10.65;9.80;;;33.90;99.90;;;;;;4903997;29;20517;-94
2022/07/15 07:01:33;;;;;;;10.52;9.93;;;33.40;99.90;;;;;;4904253;29;20458;-94
2022/07/15 07:04:00;;;;;;;9.88;9.18;;;33.30;99.90;;;;;;4904607;29;20054;-95
2022/07/15 07:06:30;;;;;;;10.75;9.90;;;33.30;99.90;;;;;;4903950;29;20060;-95
2022/07/15 07:08:57;;;;;;;11.45;10.63;;;33.50;99.90;;;;;;4903731;29;20035;-95
2022/07/15 07:11:23;;;;;;;10.55;9.85;;;34.00;99.90;;;;;;4904330;29;20060;-94
2022/07/15 07:13:50;;;;;;;10.18;9.68;;;34.00;99.90;;;;;;4903022;29;20576;-94
2022/07/15 07:16:18;;;;;;;10.15;9.50;;;33.80;99.90;;;;;;4903086;29;20040;-94
2022/07/15 07:18:45;;;;;;;11.55;10.63;;;33.90;99.90;;;;;;4941314;29;20031;-95
2022/07/15 07:21:13;;;;;;;10.80;10.10;;;33.90;99.90;;;;;;4926254;29;20139;-94
2022/07/15 07:23:40;;;;;;;10.85;10.07;;;33.90;99.90;;;;;;4925956;29;20031;-93
2022/07/15 07:26:09;;;;;;;10.65;9.73;;;34.00;99.90;;;;;;4941651;29;20042;-96
2022/07/15 07:28:40;;;;;;;10.80;10.10;;;34.30;99.90;;;;;;4941489;29;20028;-94
2022/07/15 07:31:12;;;;;;;10.65;9.98;;;34.30;99.90;;;;;;4925695;29;20033;-92
2022/07/15 07:33:42;;;;;;;11.38;10.48;;;34.00;99.90;;;;;;4941385;29;20031;-94
2022/07/15 07:36:09;;;;;;;11.10;9.98;;;34.30;99.90;;;;;;4925017;29;20090;-94
2022/07/15 07:38:37;;;;;;;12.32;11.07;;;34.40;99.90;;;;;;4925003;29;20035;-92
2022/07/15 07:41:04;;;;;;;10.88;10.18;;;34.30;99.90;;;;;;4925497;29;20035;-94
2022/07/15 07:43:32;;;;;;;11.07;10.48;;;34.10;99.90;;;;;;4940881;29;20035;-93
2022/07/15 07:45:59;;;;;;;10.68;10.10;;;34.50;99.90;;;;;;4925111;29;20032;-94
2022/07/15 07:48:27;;;;;;;10.75;10.25;;;34.80;99.40;;;;;;4926190;29;20063;-95
2022/07/15 07:50:54;;;;;;;10.07;9.40;;;34.10;99.40;;;;;;4922577;29;20019;-93
2022/07/15 07:53:21;;;;;;;10.30;9.75;;;33.80;99.90;;;;;;4925125;29;20031;-93
2022/07/15 07:55:49;;;;;;;10.65;10.15;;;34.30;99.70;;;;;;4940609;29;20572;-93
2022/07/15 07:58:17;;;;;;;11.45;10.50;;;34.40;99.80;;;;;;4925646;29;20034;-93
2022/07/15 08:00:44;;;;;;;10.90;10.40;;;33.90;99.10;;;;;;4941097;29;20099;-93
2022/07/15 08:03:12;;;;;;;11.05;10.50;;;33.40;99.20;;;;;;4940592;29;20122;-91
2022/07/15 08:05:38;;;;;;;10.70;9.90;;;33.30;99.50;;;;;;4924741;29;20056;-92
2022/07/15 08:08:08;;;;;;;10.32;9.70;;;33.40;99.90;;;;;;4940465;29;20531;-92
2022/07/15 08:10:34;;;;;;;18.90;10.32;;;33.80;99.30;;;;;;4924499;29;20030;-93
2022/07/15 08:13:01;;;;;;;10.75;10.00;;;33.60;99.20;;;;;;4937072;29;20043;-90
2022/07/15 08:15:28;;;;;;;11.02;10.52;;;33.80;98.50;;;;;;4935908;29;20314;-91
2022/07/15 08:17:56;;;;;;;10.63;9.95;;;33.30;98.60;;;;;;4937152;29;20039;-92
2022/07/15 08:20:23;;;;;;;10.77;10.18;;;33.40;98.70;;;;;;4931283;29;20023;-93
2022/07/15 08:22:51;;;;;;;10.80;10.20;;;33.50;98.10;;;;;;4940158;29;20031;-90
2022/07/15 08:25:18;;;;;;;11.40;10.50;;;33.60;97.80;;;;;;4936746;29;20023;-93
2022/07/15 08:27:45;;;;;;;11.10;10.50;;;33.50;98.10;;;;;;4921042;29;20035;-92
2022/07/15 08:30:11;;;;;;;11.20;10.38;;;33.40;99.00;;;;;;4920846;29;20043;-92
2022/07/15 08:32:38;;;;;;;11.35;10.60;;;33.30;98.50;;;;;;4937903;29;20039;-92
2022/07/15 08:35:10;;;;;;;11.32;10.60;;;33.20;98.40;;;;;;4939978;29;20041;-93
2022/07/15 08:37:37;;;;;;;11.85;11.05;;;33.50;98.60;;;;;;4939971;29;20031;-93
2022/07/15 08:40:10;;;;;;;12.35;11.20;;;33.50;98.00;;;;;;4937103;29;20051;-93
2022/07/15 08:42:43;;;;;;;11.80;10.90;;;33.70;97.70;;;;;;4920947;29;20028;-91
2022/07/15 08:45:10;;;;;;;11.45;10.85;;;33.40;97.90;;;;;;4936983;29;20032;-91
2022/07/15 08:47:42;;;;;;;11.27;10.57;;;33.60;98.30;;;;;;4936773;29;20028;-92
2022/07/15 08:50:11;;;;;;;12.48;11.35;;;33.10;98.70;;;;;;4936572;29;20166;-93
2022/07/15 08:52:39;;;;;;;11.93;11.02;;;33.50;98.80;;;;;;4925718;29;20106;-92
2022/07/15 08:55:08;;;;;;;12.05;11.32;;;33.50;97.70;;;;;;4933888;29;20028;-93
2022/07/15 08:57:35;;;;;;;12.63;11.70;;;33.80;97.40;;;;;;4920517;29;20030;-93
2022/07/15 09:00:04;;;;;;;14.55;13.10;;;33.50;97.90;;;;;;4921532;29;20496;-91
2022/07/15 09:02:30;;;;;;;12.70;12.00;;;33.40;99.20;;;;;;4919886;29;20066;-91
2022/07/15 09:05:23;;;;;;;13.00;12.32;;;33.40;99.00;;;;;;4920294;29;20032;-92
2022/07/15 09:08:06;;;;;;;13.27;12.48;;;33.20;97.80;;;;;;4936229;29;20035;-92
2022/07/15 09:10:48;;;;;;;14.13;13.13;;;33.20;98.00;;;;;;4920312;29;20032;-93
2022/07/15 09:13:36;;;;;;;13.90;13.00;;;33.50;97.50;;;;;;4935904;29;20024;-93
2022/07/15 09:16:08;;;;;;;14.80;13.40;;;33.70;97.60;;;;;;4917065;29;20055;-92
2022/07/15 09:18:41;;;;;;;12.30;11.55;;;33.80;98.10;;;;;;4943919;29;20023;-91
2022/07/15 09:21:21;;;;;;;11.93;11.40;;;33.50;96.40;;;;;;4920278;29;20032;-91
2022/07/15 09:23:50;;;;;;;11.88;11.18;;;33.10;96.30;;;;;;4923565;29;20060;-92
2022/07/15 09:26:32;;;;;;;11.85;11.15;;;33.00;96.80;;;;;;4919818;29;20088;-92
2022/07/15 09:29:00;;;;;;;12.57;11.88;;;33.50;96.90;;;;;;4904484;29;20055;-92
2022/07/15 09:34:20;;;;;;;13.07;12.35;;;33.20;97.50;;;;;;4933675;29;20027;-92
2022/07/15 09:36:54;;;;;;;12.57;11.77;;;32.90;97.90;;;;;;4919955;29;20035;-91
2022/07/15 09:39:22;;;;;;;10.90;10.40;;;32.90;97.20;;;;;;4914761;29;20055;-92
2022/07/15 09:41:49;;;;;;;11.45;10.80;;;32.80;97.10;;;;;;4932636;29;20036;-93
2022/07/15 09:44:22;;;;;;;11.85;11.00;;;32.50;97.30;;;;;;4932683;29;20028;-92
2022/07/15 09:47:03;;;;;;;11.25;10.65;;;32.40;97.80;;;;;;4933483;29;20032;-92
2022/07/15 09:49:37;;;;;;;11.20;10.50;;;32.20;98.10;;;;;;4937696;29;20043;-91
2022/07/15 09:52:10;;;;;;;11.35;10.52;;;32.70;98.40;;;;;;4936386;29;20047;-92
2022/07/15 09:54:47;;;;;;;11.38;10.52;;;32.70;98.00;;;;;;4909204;29;20039;-92
2022/07/15 09:57:18;;;;;;;11.15;10.55;;;32.70;98.10;;;;;;4916027;29;20048;-91
2022/07/15 09:59:48;;;;;;;11.13;10.52;;;32.50;97.40;;;;;;4915989;29;20107;-91
2022/07/15 10:02:16;;;;;;;10.80;10.30;;;32.30;97.50;;;;;;4918989;29;20119;-92
2022/07/15 10:04:43;;;;;;;11.40;10.52;;;32.40;98.40;;;;;;4903366;29;20058;-91
2022/07/15 10:07:13;;;;;;;11.23;10.50;;;32.30;99.00;;;;;;4919864;29;20568;-91
2022/07/15 10:09:41;;;;;;;11.20;10.70;;;32.40;99.10;;;;;;4919372;29;20068;-92
2022/07/15 10:12:14;;;;;;;11.15;10.55;;;32.20;99.50;;;;;;4919070;29;20461;-92
2022/07/15 10:14:42;;;;;;;11.40;10.88;;;32.20;99.50;;;;;;4934901;29;20160;-91
2022/07/15 10:17:59;;;;;;;11.55;10.98;;;32.20;99.80;;;;;;4919040;29;20082;-91
2022/07/15 10:20:36;;;;;;;11.75;10.90;;;32.10;99.90;;;;;;4859566;29;20048;-92
2022/07/15 10:23:28;;;;;;;12.38;11.50;;;32.20;99.90;;;;;;4877237;29;20045;-92
2022/07/15 10:26:22;;;;;;;11.43;10.73;;;32.30;99.90;;;;;;4882263;29;20142;-91
2022/07/15 10:29:03;;;;;;;12.60;11.80;;;32.20;99.90;;;;;;4882227;29;20075;-92
2022/07/15 10:31:32;;;;;;;11.05;10.40;;;32.50;99.90;;;;;;4863136;29;20121;-92
2022/07/15 10:34:20;;;;;;;11.07;10.57;;;32.40;99.70;;;;;;4863011;29;20029;-92
2022/07/15 10:36:47;;;;;;;11.57;10.63;;;32.20;99.90;;;;;;4849251;29;20121;-91
2022/07/15 10:39:26;;;;;;;11.25;10.45;;;32.30;99.90;;;;;;4874821;29;20048;-90
2022/07/15 10:42:04;;;;;;;10.90;10.30;;;32.40;99.90;;;;;;4888004;29;20074;-91
2022/07/15 10:44:50;;;;;;;10.95;10.23;;;32.20;99.90;;;;;;4888010;29;20032;-91
2022/07/15 10:47:19;;;;;;;10.63;9.90;;;32.10;99.90;;;;;;4919026;29;20038;-90
2022/07/15 10:49:49;;;;;;;10.77;10.07;;;32.20;99.90;;;;;;4903346;29;20152;-91
2022/07/15 10:52:21;;;;;;;10.35;9.77;;;32.20;99.90;;;;;;4887620;29;20057;-91
2022/07/15 10:54:58;;;;;;;9.80;9.30;;;32.10;99.90;;;;;;4905721;29;20131;-90
2022/07/15 10:57:43;;;;;;;9.70;9.00;;;32.40;99.90;;;;;;4907679;29;20526;-91
2022/07/15 11:00:22;;;;;;;10.82;9.80;;;32.60;99.10;;;;;;4907182;29;20039;-91
2022/07/15 11:03:07;;;;;;;10.65;9.95;;;32.60;99.30;;;;;;4907281;29;20083;-91
2022/07/15 11:06:00;;;;;;;9.50;8.90;;;32.70;99.40;;;;;;4922848;29;20063;-92
2022/07/15 11:08:36;;;;;;;10.55;9.95;;;32.80;99.90;;;;;;4931082;29;20040;-92
2022/07/15 11:11:15;;;;;;;9.80;9.30;;;32.40;99.50;;;;;;4938432;29;20027;-91
2022/07/15 11:13:46;;;;;;;11.07;10.10;;;32.00;99.90;;;;;;4906782;29;20028;-90
2022/07/15 11:16:24;;;;;;;10.63;9.95;;;32.10;99.90;;;;;;4908672;29;20159;-92
2022/07/15 11:18:55;;;;;;;10.50;10.00;;;32.60;99.90;;;;;;4911660;29;20032;-92
2022/07/15 11:24:19;;;;;;;11.30;10.50;;;32.20;99.20;;;;;;4924311;29;20060;-92
2022/07/15 11:26:48;;;;;;;10.55;9.95;;;32.10;99.20;;;;;;4906785;29;20028;-93
2022/07/15 11:29:22;;;;;;;10.82;10.23;;;32.40;98.90;;;;;;4922727;29;20032;-92
2022/07/15 11:31:48;;;;;;;10.70;10.00;;;32.50;99.50;;;;;;4907267;29;20043;-93
2022/07/15 11:34:17;;;;;;;9.88;9.38;;;32.40;99.90;;;;;;4906923;29;20023;-93
2022/07/15 11:36:57;;;;;;;10.85;10.15;;;32.30;99.90;;;;;;4922470;29;20047;-93
2022/07/15 11:39:32;;;;;;;10.68;9.98;;;32.30;99.00;;;;;;4929134;29;20047;-93
2022/07/15 11:44:50;;;;;;;10.13;9.63;;;32.50;99.70;;;;;;4940208;29;20038;-92
2022/07/15 11:47:38;;;;;;;;;;;;;;;;;;;;;
2022/07/15 11:50:15;;;;;;;11.70;10.45;;;32.30;99.50;;;;;;4925790;29;20063;-93
2022/07/15 11:52:55;;;;;;;10.40;9.90;;;32.50;99.50;;;;;;4908608;29;20489;-93
2022/07/15 11:55:51;;;;;;;10.45;9.95;;;32.50;99.40;;;;;;4913839;29;20059;-93
2022/07/15 11:58:33;;;;;;;10.07;9.48;;;32.20;99.30;;;;;;4945110;29;20058;-93
2022/07/15 12:01:07;;;;;;;10.13;9.43;;;32.30;99.90;;;;;;4948524;29;20023;-93
2022/07/15 12:03:39;;;;;;;10.00;9.50;;;32.40;99.50;;;;;;4943931;29;20035;-94
2022/07/15 12:06:14;;;;;;;10.00;9.50;;;32.80;99.60;;;;;;4943805;29;20110;-93
2022/07/15 12:08:45;;;;;;;9.85;9.30;;;32.60;99.60;;;;;;4940764;29;20035;-94
2022/07/15 12:11:20;;;;;;;9.60;9.10;;;32.90;98.80;;;;;;4950665;29;20027;-94
2022/07/15 12:13:53;;;;;;;10.40;9.70;;;33.00;99.20;;;;;;4930650;29;20035;-94
2022/07/15 12:17:00;;;;;;;10.07;9.57;;;32.80;98.30;;;;;;4936167;29;20050;-92
2022/07/15 12:19:32;;;;;;;10.07;9.40;;;32.30;98.40;;;;;;4919896;29;20035;-93
2022/07/15 12:22:11;;;;;;;10.05;9.43;;;32.30;99.00;;;;;;4928242;29;20043;-93
2022/07/15 12:24:57;;;;;;;10.68;9.80;;;32.50;98.80;;;;;;4941580;29;20043;-93
2022/07/15 12:27:37;;;;;;;10.57;9.88;;;32.90;98.10;;;;;;4938053;29;20031;-93
2022/07/15 12:30:15;;;;;;;10.52;10.02;;;32.80;97.70;;;;;;4946241;29;20079;-94
2022/07/15 12:33:23;;;;;;;10.80;10.20;;;32.80;97.90;;;;;;4944617;29;20047;-94
2022/07/15 12:36:17;;;;;;;10.25;9.68;;;32.90;98.00;;;;;;4932932;29;20129;-94
2022/07/15 12:38:44;;;;;;;10.77;10.18;;;33.00;97.10;;;;;;4926395;29;20043;-93
2022/07/15 12:41:23;;;;;;;10.73;10.02;;;33.10;97.10;;;;;;4941203;29;20623;-93
2022/07/15 12:43:59;;;;;;;10.43;9.93;;;33.00;95.60;;;;;;4942676;29;20035;-92
2022/07/15 12:46:56;;;;;;;10.55;9.98;;;32.60;96.50;;;;;;4924538;29;20039;-94
2022/07/15 12:49:46;;;;;;;11.00;10.32;;;32.50;96.50;;;;;;4941028;29;20038;-93
2022/07/15 12:52:25;;;;;;;10.32;9.70;;;32.40;96.40;;;;;;4941874;29;20058;-94
2022/07/15 12:54:55;;;;;;;10.60;10.10;;;32.50;96.20;;;;;;4924364;29;20035;-93
2022/07/15 12:57:35;;;;;;;10.80;10.00;;;32.50;96.20;;;;;;4939792;29;20059;-92
2022/07/15 13:00:20;;;;;;;10.90;10.30;;;32.90;95.90;;;;;;4940519;29;20031;-94
2022/07/15 13:03:09;;;;;;;10.55;10.05;;;33.00;95.70;;;;;;4940794;29;20034;-93
2022/07/15 13:06:02;;;;;;;10.50;10.00;;;32.70;95.70;;;;;;4944162;28;20034;-92
2022/07/15 13:08:34;;;;;;;10.57;10.02;;;32.50;96.50;;;;;;4956155;29;20039;-94
2022/07/15 13:11:04;;;;;;;10.40;9.90;;;32.50;96.30;;;;;;4945662;29;20038;-93
2022/07/15 13:13:56;;;;;;;10.80;10.20;;;32.70;96.50;;;;;;4951410;29;20118;-94
2022/07/15 13:16:37;;;;;;;10.60;10.00;;;32.80;95.40;;;;;;4958822;29;20473;-92
2022/07/15 13:19:06;;;;;;;10.60;10.00;;;32.70;95.80;;;;;;4932747;29;20031;-93
2022/07/15 13:21:33;;;;;;;10.88;10.27;;;32.70;96.50;;;;;;4949382;29;20493;-92
2022/07/15 13:23:59;;;;;;;11.27;10.55;;;32.40;97.30;;;;;;4957054;29;20122;-93
2022/07/15 13:27:15;;;;;;;10.35;9.90;;;32.30;97.30;;;;;;4944782;29;20066;-94
2022/07/15 13:30:14;;;;;;;10.90;10.10;;;32.50;95.80;;;;;;4954998;29;20035;-93
2022/07/15 13:33:07;;;;;;;10.48;9.98;;;32.40;96.40;;;;;;4943117;29;20035;-92
2022/07/15 13:35:57;;;;;;;10.38;9.93;;;32.20;96.10;;;;;;4932847;29;20027;-92
2022/07/15 13:39:06;;;;;;;10.70;10.00;;;32.20;96.10;;;;;;4935293;29;20618;-94
2022/07/15 13:44:38;;;;;;;10.45;9.63;;;32.40;96.00;;;;;;4971434;23;20094;-94
2022/07/15 13:48:18;;;;;;;10.60;10.00;;;32.80;95.10;;;;;;4933740;29;20126;-93
2022/07/15 13:51:32;;;;;;;10.57;9.93;;;32.70;95.00;;;;;;4950543;29;20054;-93
2022/07/15 13:54:09;;;;;;;10.40;9.90;;;32.40;95.10;;;;;;4941015;29;20032;-93
2022/07/15 13:56:47;;;;;;;10.45;9.85;;;32.30;94.60;;;;;;4949150;29;20043;-93
2022/07/15 14:02:04;;;;;;;10.43;9.75;;;32.20;95.10;;;;;;5087223;23;20423;-93
2022/07/15 14:04:53;;;;;;;10.90;10.32;;;32.30;95.30;;;;;;4975520;28;20030;-92
2022/07/15 14:07:20;;;;;;;10.13;9.63;;;32.30;95.70;;;;;;4962394;28;20065;-92